sensor_id;sensor_type;location;lat;lon;timestamp;temperature;humidity
78345;DHT22;67620;51.134;6.548;2024-02-14T00:02:14;8.60;77.30
78345;DHT22;67620;51.134;6.548;2024-02-14T00:04:40;8.60;79.70
78345;DHT22;67620;51.134;6.548;2024-02-14T00:07:05;8.60;80.50
78345;DHT22;67620;51.134;6.548;2024-02-14T00:09:31;8.50;81.10
78345;DHT22;67620;51.134;6.548;2024-02-14T00:11:57;8.40;81.30
78345;DHT22;67620;51.134;6.548;2024-02-14T00:14:22;8.50;80.50
78345;DHT22;67620;51.134;6.548;2024-02-14T00:16:48;8.50;80.60
78345;DHT22;67620;51.134;6.548;2024-02-14T00:19:13;8.50;80.90
78345;DHT22;67620;51.134;6.548;2024-02-14T00:21:40;8.50;80.80
78345;DHT22;67620;51.134;6.548;2024-02-14T00:24:05;8.50;80.90
78345;DHT22;67620;51.134;6.548;2024-02-14T00:26:31;8.50;80.40
78345;DHT22;67620;51.134;6.548;2024-02-14T00:28:57;8.50;80.50
78345;DHT22;67620;51.134;6.548;2024-02-14T00:31:22;8.50;80.70
78345;DHT22;67620;51.134;6.548;2024-02-14T00:33:48;8.50;80.00
78345;DHT22;67620;51.134;6.548;2024-02-14T00:36:13;8.50;80.20
78345;DHT22;67620;51.134;6.548;2024-02-14T00:38:39;8.60;80.00
78345;DHT22;67620;51.134;6.548;2024-02-14T00:41:04;8.60;79.80
78345;DHT22;67620;51.134;6.548;2024-02-14T00:43:30;8.60;80.00
78345;DHT22;67620;51.134;6.548;2024-02-14T00:45:56;8.60;80.40
78345;DHT22;67620;51.134;6.548;2024-02-14T00:48:22;8.60;80.20
78345;DHT22;67620;51.134;6.548;2024-02-14T00:50:48;8.60;80.20
78345;DHT22;67620;51.134;6.548;2024-02-14T00:53:13;8.70;80.00
78345;DHT22;67620;51.134;6.548;2024-02-14T00:55:39;8.70;80.00
78345;DHT22;67620;51.134;6.548;2024-02-14T00:58:05;8.70;79.70
78345;DHT22;67620;51.134;6.548;2024-02-14T01:00:30;8.70;79.80
78345;DHT22;67620;51.134;6.548;2024-02-14T01:02:57;8.80;79.70
78345;DHT22;67620;51.134;6.548;2024-02-14T01:05:23;8.80;79.70
78345;DHT22;67620;51.134;6.548;2024-02-14T01:07:49;8.80;79.80
78345;DHT22;67620;51.134;6.548;2024-02-14T01:10:14;8.80;80.10
78345;DHT22;67620;51.134;6.548;2024-02-14T01:12:40;8.80;80.40
78345;DHT22;67620;51.134;6.548;2024-02-14T01:15:06;8.80;80.70
78345;DHT22;67620;51.134;6.548;2024-02-14T01:17:32;8.80;80.80
78345;DHT22;67620;51.134;6.548;2024-02-14T01:19:58;8.80;81.10
78345;DHT22;67620;51.134;6.548;2024-02-14T01:22:23;8.80;81.10
78345;DHT22;67620;51.134;6.548;2024-02-14T01:24:49;8.80;81.00
78345;DHT22;67620;51.134;6.548;2024-02-14T01:27:14;8.80;81.20
78345;DHT22;67620;51.134;6.548;2024-02-14T01:29:41;8.80;81.20
78345;DHT22;67620;51.134;6.548;2024-02-14T01:32:06;8.80;81.20
78345;DHT22;67620;51.134;6.548;2024-02-14T01:34:32;8.90;81.40
78345;DHT22;67620;51.134;6.548;2024-02-14T01:36:57;8.90;81.20
78345;DHT22;67620;51.134;6.548;2024-02-14T01:39:23;8.90;81.40
78345;DHT22;67620;51.134;6.548;2024-02-14T01:41:48;8.90;81.50
78345;DHT22;67620;51.134;6.548;2024-02-14T01:44:17;8.90;81.50
78345;DHT22;67620;51.134;6.548;2024-02-14T01:46:43;8.90;81.30
78345;DHT22;67620;51.134;6.548;2024-02-14T01:49:09;8.90;81.50
78345;DHT22;67620;51.134;6.548;2024-02-14T01:51:35;8.90;81.50
78345;DHT22;67620;51.134;6.548;2024-02-14T01:54:01;8.90;81.60
78345;DHT22;67620;51.134;6.548;2024-02-14T01:56:28;8.90;81.70
78345;DHT22;67620;51.134;6.548;2024-02-14T01:58:54;8.90;82.00
78345;DHT22;67620;51.134;6.548;2024-02-14T02:01:19;8.90;81.80
78345;DHT22;67620;51.134;6.548;2024-02-14T02:03:45;8.90;82.00
78345;DHT22;67620;51.134;6.548;2024-02-14T02:06:11;8.90;82.10
78345;DHT22;67620;51.134;6.548;2024-02-14T02:08:36;9.00;81.80
78345;DHT22;67620;51.134;6.548;2024-02-14T02:11:02;8.90;82.20
78345;DHT22;67620;51.134;6.548;2024-02-14T02:13:28;8.90;82.00
78345;DHT22;67620;51.134;6.548;2024-02-14T02:15:53;9.00;82.00
78345;DHT22;67620;51.134;6.548;2024-02-14T02:18:19;9.00;81.90
78345;DHT22;67620;51.134;6.548;2024-02-14T02:20:45;9.00;82.20
78345;DHT22;67620;51.134;6.548;2024-02-14T02:23:11;9.00;82.20
78345;DHT22;67620;51.134;6.548;2024-02-14T02:25:40;9.00;82.70
78345;DHT22;67620;51.134;6.548;2024-02-14T02:28:05;9.00;82.80
78345;DHT22;67620;51.134;6.548;2024-02-14T02:30:31;9.00;82.90
78345;DHT22;67620;51.134;6.548;2024-02-14T02:32:56;9.00;82.70
78345;DHT22;67620;51.134;6.548;2024-02-14T02:35:23;9.10;82.50
78345;DHT22;67620;51.134;6.548;2024-02-14T02:37:49;9.10;82.60
78345;DHT22;67620;51.134;6.548;2024-02-14T02:40:16;9.10;82.50
78345;DHT22;67620;51.134;6.548;2024-02-14T02:42:42;9.10;82.60
78345;DHT22;67620;51.134;6.548;2024-02-14T02:45:08;9.10;82.70
78345;DHT22;67620;51.134;6.548;2024-02-14T02:47:34;9.10;82.90
78345;DHT22;67620;51.134;6.548;2024-02-14T02:49:59;9.10;82.90
78345;DHT22;67620;51.134;6.548;2024-02-14T02:52:26;9.20;83.10
78345;DHT22;67620;51.134;6.548;2024-02-14T02:54:53;9.10;83.60
78345;DHT22;67620;51.134;6.548;2024-02-14T02:57:19;9.10;84.00
78345;DHT22;67620;51.134;6.548;2024-02-14T02:59:44;9.10;84.20
78345;DHT22;67620;51.134;6.548;2024-02-14T03:02:12;9.10;84.30
78345;DHT22;67620;51.134;6.548;2024-02-14T03:04:38;9.10;84.50
78345;DHT22;67620;51.134;6.548;2024-02-14T03:07:04;9.10;84.70
78345;DHT22;67620;51.134;6.548;2024-02-14T03:09:32;9.10;85.00
78345;DHT22;67620;51.134;6.548;2024-02-14T03:11:57;9.00;85.50
78345;DHT22;67620;51.134;6.548;2024-02-14T03:14:23;9.00;85.90
78345;DHT22;67620;51.134;6.548;2024-02-14T03:16:49;9.00;86.00
78345;DHT22;67620;51.134;6.548;2024-02-14T03:19:14;9.00;86.00
78345;DHT22;67620;51.134;6.548;2024-02-14T03:21:40;9.00;85.50
78345;DHT22;67620;51.134;6.548;2024-02-14T03:24:05;9.10;85.10
78345;DHT22;67620;51.134;6.548;2024-02-14T03:26:31;9.10;85.10
78345;DHT22;67620;51.134;6.548;2024-02-14T03:28:59;9.10;85.00
78345;DHT22;67620;51.134;6.548;2024-02-14T03:31:25;9.10;84.90
78345;DHT22;67620;51.134;6.548;2024-02-14T03:33:51;9.10;85.10
78345;DHT22;67620;51.134;6.548;2024-02-14T03:36:16;9.10;85.40
78345;DHT22;67620;51.134;6.548;2024-02-14T03:38:42;9.00;85.60
78345;DHT22;67620;51.134;6.548;2024-02-14T03:41:07;9.00;85.60
78345;DHT22;67620;51.134;6.548;2024-02-14T03:43:33;9.10;85.70
78345;DHT22;67620;51.134;6.548;2024-02-14T03:45:58;9.00;85.80
78345;DHT22;67620;51.134;6.548;2024-02-14T03:48:24;9.00;86.00
78345;DHT22;67620;51.134;6.548;2024-02-14T03:50:49;9.00;85.70
78345;DHT22;67620;51.134;6.548;2024-02-14T03:53:15;9.00;85.80
78345;DHT22;67620;51.134;6.548;2024-02-14T03:55:41;9.00;85.90
78345;DHT22;67620;51.134;6.548;2024-02-14T03:58:06;9.00;85.90
78345;DHT22;67620;51.134;6.548;2024-02-14T04:00:34;9.00;86.20
78345;DHT22;67620;51.134;6.548;2024-02-14T04:03:00;8.90;86.50
78345;DHT22;67620;51.134;6.548;2024-02-14T04:05:28;8.90;86.60
78345;DHT22;67620;51.134;6.548;2024-02-14T04:07:54;8.90;86.60
78345;DHT22;67620;51.134;6.548;2024-02-14T04:10:19;8.90;86.60
78345;DHT22;67620;51.134;6.548;2024-02-14T04:12:45;9.00;86.40
78345;DHT22;67620;51.134;6.548;2024-02-14T04:15:10;8.90;86.60
78345;DHT22;67620;51.134;6.548;2024-02-14T04:17:36;8.90;86.60
78345;DHT22;67620;51.134;6.548;2024-02-14T04:20:02;8.90;86.60
78345;DHT22;67620;51.134;6.548;2024-02-14T04:22:27;9.00;86.30
78345;DHT22;67620;51.134;6.548;2024-02-14T04:24:53;9.00;86.20
78345;DHT22;67620;51.134;6.548;2024-02-14T04:27:18;9.00;86.20
78345;DHT22;67620;51.134;6.548;2024-02-14T04:29:47;9.00;86.30
78345;DHT22;67620;51.134;6.548;2024-02-14T04:32:12;8.90;86.40
78345;DHT22;67620;51.134;6.548;2024-02-14T04:34:38;8.90;86.60
78345;DHT22;67620;51.134;6.548;2024-02-14T04:37:07;9.00;86.20
78345;DHT22;67620;51.134;6.548;2024-02-14T04:39:37;9.00;86.40
78345;DHT22;67620;51.134;6.548;2024-02-14T04:42:03;9.00;86.20
78345;DHT22;67620;51.134;6.548;2024-02-14T04:44:30;9.00;86.40
78345;DHT22;67620;51.134;6.548;2024-02-14T04:46:56;9.00;86.30
78345;DHT22;67620;51.134;6.548;2024-02-14T04:49:23;9.10;86.20
78345;DHT22;67620;51.134;6.548;2024-02-14T04:51:48;9.00;86.40
78345;DHT22;67620;51.134;6.548;2024-02-14T04:54:14;9.10;86.20
78345;DHT22;67620;51.134;6.548;2024-02-14T04:56:41;9.10;86.30
78345;DHT22;67620;51.134;6.548;2024-02-14T04:59:08;9.10;87.00
78345;DHT22;67620;51.134;6.548;2024-02-14T05:01:34;9.00;88.70
78345;DHT22;67620;51.134;6.548;2024-02-14T05:03:59;8.90;90.10
78345;DHT22;67620;51.134;6.548;2024-02-14T05:06:25;8.80;90.70
78345;DHT22;67620;51.134;6.548;2024-02-14T05:08:50;8.80;91.50
78345;DHT22;67620;51.134;6.548;2024-02-14T05:11:17;8.70;92.00
78345;DHT22;67620;51.134;6.548;2024-02-14T05:13:42;8.70;92.60
78345;DHT22;67620;51.134;6.548;2024-02-14T05:16:09;8.70;92.70
78345;DHT22;67620;51.134;6.548;2024-02-14T05:18:36;8.70;92.90
78345;DHT22;67620;51.134;6.548;2024-02-14T05:21:04;8.70;92.70
78345;DHT22;67620;51.134;6.548;2024-02-14T05:23:30;8.70;92.60
78345;DHT22;67620;51.134;6.548;2024-02-14T05:25:55;8.70;92.00
78345;DHT22;67620;51.134;6.548;2024-02-14T05:28:21;8.70;91.70
78345;DHT22;67620;51.134;6.548;2024-02-14T05:30:46;8.80;91.50
78345;DHT22;67620;51.134;6.548;2024-02-14T05:33:12;8.80;91.30
78345;DHT22;67620;51.134;6.548;2024-02-14T05:35:37;8.80;90.80
78345;DHT22;67620;51.134;6.548;2024-02-14T05:38:03;8.80;90.70
78345;DHT22;67620;51.134;6.548;2024-02-14T05:40:33;8.90;90.20
78345;DHT22;67620;51.134;6.548;2024-02-14T05:42:58;8.90;90.20
78345;DHT22;67620;51.134;6.548;2024-02-14T05:45:24;8.90;90.30
78345;DHT22;67620;51.134;6.548;2024-02-14T05:47:49;8.90;90.60
78345;DHT22;67620;51.134;6.548;2024-02-14T05:50:15;8.90;90.80
78345;DHT22;67620;51.134;6.548;2024-02-14T05:52:40;8.90;90.80
78345;DHT22;67620;51.134;6.548;2024-02-14T05:55:06;8.90;90.70
78345;DHT22;67620;51.134;6.548;2024-02-14T05:57:31;8.90;90.80
78345;DHT22;67620;51.134;6.548;2024-02-14T05:59:57;8.90;90.80
78345;DHT22;67620;51.134;6.548;2024-02-14T06:02:22;8.90;90.80
78345;DHT22;67620;51.134;6.548;2024-02-14T06:04:48;8.90;90.80
78345;DHT22;67620;51.134;6.548;2024-02-14T06:07:13;8.90;90.60
78345;DHT22;67620;51.134;6.548;2024-02-14T06:09:38;8.90;90.50
78345;DHT22;67620;51.134;6.548;2024-02-14T06:12:04;8.90;90.40
78345;DHT22;67620;51.134;6.548;2024-02-14T06:14:30;8.90;90.20
78345;DHT22;67620;51.134;6.548;2024-02-14T06:16:56;8.90;90.20
78345;DHT22;67620;51.134;6.548;2024-02-14T06:19:22;8.90;90.50
78345;DHT22;67620;51.134;6.548;2024-02-14T06:21:48;8.90;91.10
78345;DHT22;67620;51.134;6.548;2024-02-14T06:24:13;8.90;91.50
78345;DHT22;67620;51.134;6.548;2024-02-14T06:26:39;8.90;91.30
78345;DHT22;67620;51.134;6.548;2024-02-14T06:29:04;8.90;91.10
78345;DHT22;67620;51.134;6.548;2024-02-14T06:31:30;8.90;91.00
78345;DHT22;67620;51.134;6.548;2024-02-14T06:33:55;9.00;90.60
78345;DHT22;67620;51.134;6.548;2024-02-14T06:36:21;9.00;90.20
78345;DHT22;67620;51.134;6.548;2024-02-14T06:38:46;9.00;89.90
78345;DHT22;67620;51.134;6.548;2024-02-14T06:41:12;9.10;89.90
78345;DHT22;67620;51.134;6.548;2024-02-14T06:43:37;9.10;89.80
78345;DHT22;67620;51.134;6.548;2024-02-14T06:46:05;9.10;89.60
78345;DHT22;67620;51.134;6.548;2024-02-14T06:48:30;9.10;89.70
78345;DHT22;67620;51.134;6.548;2024-02-14T06:50:55;9.10;89.70
78345;DHT22;67620;51.134;6.548;2024-02-14T06:53:21;9.10;89.60
78345;DHT22;67620;51.134;6.548;2024-02-14T06:55:47;9.10;89.30
78345;DHT22;67620;51.134;6.548;2024-02-14T06:58:12;9.10;89.30
78345;DHT22;67620;51.134;6.548;2024-02-14T07:00:38;9.10;89.20
78345;DHT22;67620;51.134;6.548;2024-02-14T07:03:03;9.10;89.10
78345;DHT22;67620;51.134;6.548;2024-02-14T07:05:29;9.20;89.00
78345;DHT22;67620;51.134;6.548;2024-02-14T07:07:55;9.20;89.10
78345;DHT22;67620;51.134;6.548;2024-02-14T07:10:20;9.20;88.90
78345;DHT22;67620;51.134;6.548;2024-02-14T07:12:46;9.20;88.90
78345;DHT22;67620;51.134;6.548;2024-02-14T07:15:12;9.20;88.90
78345;DHT22;67620;51.134;6.548;2024-02-14T07:17:37;9.20;88.60
78345;DHT22;67620;51.134;6.548;2024-02-14T07:20:06;9.30;88.60
78345;DHT22;67620;51.134;6.548;2024-02-14T07:22:34;9.20;88.80
78345;DHT22;67620;51.134;6.548;2024-02-14T07:25:00;9.30;88.60
78345;DHT22;67620;51.134;6.548;2024-02-14T07:27:25;9.30;88.70
78345;DHT22;67620;51.134;6.548;2024-02-14T07:29:50;9.30;88.70
78345;DHT22;67620;51.134;6.548;2024-02-14T07:32:16;9.30;88.80
78345;DHT22;67620;51.134;6.548;2024-02-14T07:34:42;9.30;88.40
78345;DHT22;67620;51.134;6.548;2024-02-14T07:37:07;9.40;88.20
78345;DHT22;67620;51.134;6.548;2024-02-14T07:39:33;9.40;88.00
78345;DHT22;67620;51.134;6.548;2024-02-14T07:42:02;9.40;87.80
78345;DHT22;67620;51.134;6.548;2024-02-14T07:44:28;9.50;87.80
78345;DHT22;67620;51.134;6.548;2024-02-14T07:46:53;9.50;87.70
78345;DHT22;67620;51.134;6.548;2024-02-14T07:49:19;9.50;87.80
78345;DHT22;67620;51.134;6.548;2024-02-14T07:51:45;9.50;87.70
78345;DHT22;67620;51.134;6.548;2024-02-14T07:54:10;9.50;87.70
78345;DHT22;67620;51.134;6.548;2024-02-14T07:56:36;9.50;87.70
78345;DHT22;67620;51.134;6.548;2024-02-14T07:59:01;9.50;88.00
78345;DHT22;67620;51.134;6.548;2024-02-14T08:01:27;9.50;87.80
78345;DHT22;67620;51.134;6.548;2024-02-14T08:03:53;9.50;87.90
78345;DHT22;67620;51.134;6.548;2024-02-14T08:06:19;9.60;87.70
78345;DHT22;67620;51.134;6.548;2024-02-14T08:08:45;9.60;87.70
78345;DHT22;67620;51.134;6.548;2024-02-14T08:11:10;9.60;87.60
78345;DHT22;67620;51.134;6.548;2024-02-14T08:13:36;9.70;87.60
78345;DHT22;67620;51.134;6.548;2024-02-14T08:16:04;9.70;87.40
78345;DHT22;67620;51.134;6.548;2024-02-14T08:18:30;9.70;87.40
78345;DHT22;67620;51.134;6.548;2024-02-14T08:20:55;9.80;86.80
78345;DHT22;67620;51.134;6.548;2024-02-14T08:23:21;9.90;86.70
78345;DHT22;67620;51.134;6.548;2024-02-14T08:25:46;9.90;87.00
78345;DHT22;67620;51.134;6.548;2024-02-14T08:28:14;10.00;86.50
78345;DHT22;67620;51.134;6.548;2024-02-14T08:30:39;10.00;86.80
78345;DHT22;67620;51.134;6.548;2024-02-14T08:33:05;9.90;86.70
78345;DHT22;67620;51.134;6.548;2024-02-14T08:35:30;10.00;86.90
78345;DHT22;67620;51.134;6.548;2024-02-14T08:37:55;10.00;87.10
78345;DHT22;67620;51.134;6.548;2024-02-14T08:40:21;10.00;86.50
78345;DHT22;67620;51.134;6.548;2024-02-14T08:42:46;10.10;86.80
78345;DHT22;67620;51.134;6.548;2024-02-14T08:45:12;10.10;86.20
78345;DHT22;67620;51.134;6.548;2024-02-14T08:47:37;10.20;86.20
78345;DHT22;67620;51.134;6.548;2024-02-14T08:50:04;10.20;85.80
78345;DHT22;67620;51.134;6.548;2024-02-14T08:52:29;10.30;85.00
78345;DHT22;67620;51.134;6.548;2024-02-14T08:54:55;10.30;85.10
78345;DHT22;67620;51.134;6.548;2024-02-14T08:57:20;10.30;85.20
78345;DHT22;67620;51.134;6.548;2024-02-14T08:59:46;10.30;84.70
78345;DHT22;67620;51.134;6.548;2024-02-14T09:02:13;10.40;84.70
78345;DHT22;67620;51.134;6.548;2024-02-14T09:04:39;10.50;84.00
78345;DHT22;67620;51.134;6.548;2024-02-14T09:07:06;10.70;83.20
78345;DHT22;67620;51.134;6.548;2024-02-14T09:09:32;11.20;81.90
78345;DHT22;67620;51.134;6.548;2024-02-14T09:11:58;11.80;78.90
78345;DHT22;67620;51.134;6.548;2024-02-14T09:14:28;11.60;79.60
78345;DHT22;67620;51.134;6.548;2024-02-14T09:16:53;11.40;81.10
78345;DHT22;67620;51.134;6.548;2024-02-14T09:19:19;11.20;81.80
78345;DHT22;67620;51.134;6.548;2024-02-14T09:21:44;11.10;82.00
78345;DHT22;67620;51.134;6.548;2024-02-14T09:24:10;11.00;81.70
78345;DHT22;67620;51.134;6.548;2024-02-14T09:26:36;11.00;81.90
78345;DHT22;67620;51.134;6.548;2024-02-14T09:29:03;11.00;82.30
78345;DHT22;67620;51.134;6.548;2024-02-14T09:31:28;11.00;82.10
78345;DHT22;67620;51.134;6.548;2024-02-14T09:33:54;11.00;82.00
78345;DHT22;67620;51.134;6.548;2024-02-14T09:36:22;11.10;81.90
78345;DHT22;67620;51.134;6.548;2024-02-14T09:38:48;11.10;82.50
78345;DHT22;67620;51.134;6.548;2024-02-14T09:43:45;11.10;82.50
78345;DHT22;67620;51.134;6.548;2024-02-14T09:46:13;11.00;81.80
78345;DHT22;67620;51.134;6.548;2024-02-14T09:48:40;11.10;81.90
78345;DHT22;67620;51.134;6.548;2024-02-14T09:51:08;11.10;82.20
78345;DHT22;67620;51.134;6.548;2024-02-14T09:53:33;11.10;82.30
78345;DHT22;67620;51.134;6.548;2024-02-14T09:55:59;11.10;81.90
78345;DHT22;67620;51.134;6.548;2024-02-14T09:58:26;11.10;81.80
78345;DHT22;67620;51.134;6.548;2024-02-14T10:00:52;11.20;81.90
78345;DHT22;67620;51.134;6.548;2024-02-14T10:03:18;11.20;82.00
78345;DHT22;67620;51.134;6.548;2024-02-14T10:05:43;11.20;82.10
78345;DHT22;67620;51.134;6.548;2024-02-14T10:08:09;11.20;81.50
78345;DHT22;67620;51.134;6.548;2024-02-14T10:10:37;11.30;81.90
78345;DHT22;67620;51.134;6.548;2024-02-14T10:13:06;11.30;81.60
78345;DHT22;67620;51.134;6.548;2024-02-14T10:15:32;11.40;81.30
78345;DHT22;67620;51.134;6.548;2024-02-14T10:17:58;11.40;81.30
78345;DHT22;67620;51.134;6.548;2024-02-14T10:20:24;11.40;82.60
78345;DHT22;67620;51.134;6.548;2024-02-14T10:22:49;11.30;83.80
78345;DHT22;67620;51.134;6.548;2024-02-14T10:25:15;11.30;84.60
78345;DHT22;67620;51.134;6.548;2024-02-14T10:27:40;11.30;83.20
78345;DHT22;67620;51.134;6.548;2024-02-14T10:30:09;11.40;83.70
78345;DHT22;67620;51.134;6.548;2024-02-14T10:32:38;11.40;83.00
78345;DHT22;67620;51.134;6.548;2024-02-14T10:35:06;11.40;84.10
78345;DHT22;67620;51.134;6.548;2024-02-14T10:37:34;11.20;87.50
78345;DHT22;67620;51.134;6.548;2024-02-14T10:40:00;11.20;87.70
78345;DHT22;67620;51.134;6.548;2024-02-14T10:42:27;11.20;88.00
78345;DHT22;67620;51.134;6.548;2024-02-14T10:44:52;11.10;88.40
78345;DHT22;67620;51.134;6.548;2024-02-14T10:47:19;11.20;87.90
78345;DHT22;67620;51.134;6.548;2024-02-14T10:49:46;11.30;86.10
78345;DHT22;67620;51.134;6.548;2024-02-14T10:52:12;11.50;85.60
78345;DHT22;67620;51.134;6.548;2024-02-14T10:54:38;11.50;85.80
78345;DHT22;67620;51.134;6.548;2024-02-14T10:57:05;11.60;84.50
78345;DHT22;67620;51.134;6.548;2024-02-14T10:59:36;11.50;84.60
78345;DHT22;67620;51.134;6.548;2024-02-14T11:02:04;11.50;84.70
78345;DHT22;67620;51.134;6.548;2024-02-14T11:04:29;11.60;84.80
78345;DHT22;67620;51.134;6.548;2024-02-14T11:06:55;11.80;83.50
78345;DHT22;67620;51.134;6.548;2024-02-14T11:09:30;12.20;83.80
78345;DHT22;67620;51.134;6.548;2024-02-14T11:12:02;12.20;82.60
78345;DHT22;67620;51.134;6.548;2024-02-14T11:14:31;12.20;82.80
78345;DHT22;67620;51.134;6.548;2024-02-14T11:16:59;12.50;82.90
78345;DHT22;67620;51.134;6.548;2024-02-14T11:19:30;12.60;82.10
78345;DHT22;67620;51.134;6.548;2024-02-14T11:21:58;12.60;81.10
78345;DHT22;67620;51.134;6.548;2024-02-14T11:24:27;12.80;81.30
78345;DHT22;67620;51.134;6.548;2024-02-14T11:26:53;12.70;80.20
78345;DHT22;67620;51.134;6.548;2024-02-14T11:29:20;12.50;81.10
78345;DHT22;67620;51.134;6.548;2024-02-14T11:31:46;12.40;81.50
78345;DHT22;67620;51.134;6.548;2024-02-14T11:34:13;12.30;82.40
78345;DHT22;67620;51.134;6.548;2024-02-14T11:36:41;12.20;82.40
78345;DHT22;67620;51.134;6.548;2024-02-14T11:39:07;12.10;84.20
78345;DHT22;67620;51.134;6.548;2024-02-14T11:41:35;12.00;84.40
78345;DHT22;67620;51.134;6.548;2024-02-14T11:44:01;11.90;84.60
78345;DHT22;67620;51.134;6.548;2024-02-14T11:46:29;11.90;84.60
78345;DHT22;67620;51.134;6.548;2024-02-14T11:48:55;11.90;84.40
78345;DHT22;67620;51.134;6.548;2024-02-14T11:51:22;11.90;83.60
78345;DHT22;67620;51.134;6.548;2024-02-14T11:53:47;11.90;83.70
78345;DHT22;67620;51.134;6.548;2024-02-14T11:56:14;11.80;85.00
78345;DHT22;67620;51.134;6.548;2024-02-14T11:58:39;11.80;85.80
78345;DHT22;67620;51.134;6.548;2024-02-14T12:01:05;11.70;86.40
78345;DHT22;67620;51.134;6.548;2024-02-14T12:03:30;11.70;86.70
78345;DHT22;67620;51.134;6.548;2024-02-14T12:05:56;11.70;86.70
78345;DHT22;67620;51.134;6.548;2024-02-14T12:08:22;11.70;86.60
78345;DHT22;67620;51.134;6.548;2024-02-14T12:10:48;11.60;85.90
78345;DHT22;67620;51.134;6.548;2024-02-14T12:13:15;11.60;88.40
78345;DHT22;67620;51.134;6.548;2024-02-14T12:15:44;11.40;90.50
78345;DHT22;67620;51.134;6.548;2024-02-14T12:18:09;11.30;91.70
78345;DHT22;67620;51.134;6.548;2024-02-14T12:20:39;11.30;92.60
78345;DHT22;67620;51.134;6.548;2024-02-14T12:23:04;11.30;91.70
78345;DHT22;67620;51.134;6.548;2024-02-14T12:25:33;11.30;91.30
78345;DHT22;67620;51.134;6.548;2024-02-14T12:27:59;11.40;91.30
78345;DHT22;67620;51.134;6.548;2024-02-14T12:30:45;11.40;90.70
78345;DHT22;67620;51.134;6.548;2024-02-14T12:33:11;11.40;90.70
78345;DHT22;67620;51.134;6.548;2024-02-14T12:35:36;11.40;90.30
78345;DHT22;67620;51.134;6.548;2024-02-14T12:38:07;11.40;90.40
78345;DHT22;67620;51.134;6.548;2024-02-14T12:40:35;11.50;90.30
78345;DHT22;67620;51.134;6.548;2024-02-14T12:43:00;11.50;90.30
78345;DHT22;67620;51.134;6.548;2024-02-14T12:45:26;11.60;89.90
78345;DHT22;67620;51.134;6.548;2024-02-14T12:47:52;11.60;89.10
78345;DHT22;67620;51.134;6.548;2024-02-14T12:50:18;11.60;89.10
78345;DHT22;67620;51.134;6.548;2024-02-14T12:52:48;11.60;89.10
78345;DHT22;67620;51.134;6.548;2024-02-14T12:55:14;11.60;88.20
78345;DHT22;67620;51.134;6.548;2024-02-14T12:57:39;11.70;88.20
78345;DHT22;67620;51.134;6.548;2024-02-14T13:00:05;11.70;87.70
78345;DHT22;67620;51.134;6.548;2024-02-14T13:02:34;11.80;87.40
78345;DHT22;67620;51.134;6.548;2024-02-14T13:04:59;11.70;87.40
78345;DHT22;67620;51.134;6.548;2024-02-14T13:07:26;11.70;87.90
78345;DHT22;67620;51.134;6.548;2024-02-14T13:09:51;11.70;88.10
78345;DHT22;67620;51.134;6.548;2024-02-14T13:12:17;11.70;88.20
78345;DHT22;67620;51.134;6.548;2024-02-14T13:14:42;11.80;88.70
78345;DHT22;67620;51.134;6.548;2024-02-14T13:17:09;11.80;88.10
78345;DHT22;67620;51.134;6.548;2024-02-14T13:19:36;11.80;88.20
78345;DHT22;67620;51.134;6.548;2024-02-14T13:22:01;11.80;87.90
78345;DHT22;67620;51.134;6.548;2024-02-14T13:24:27;11.80;88.20
78345;DHT22;67620;51.134;6.548;2024-02-14T13:26:53;11.80;87.80
78345;DHT22;67620;51.134;6.548;2024-02-14T13:29:19;11.80;87.30
78345;DHT22;67620;51.134;6.548;2024-02-14T13:31:44;11.80;88.00
78345;DHT22;67620;51.134;6.548;2024-02-14T13:34:10;11.80;88.00
78345;DHT22;67620;51.134;6.548;2024-02-14T13:36:37;11.80;88.10
78345;DHT22;67620;51.134;6.548;2024-02-14T13:39:02;11.80;88.10
78345;DHT22;67620;51.134;6.548;2024-02-14T13:41:28;11.80;88.70
78345;DHT22;67620;51.134;6.548;2024-02-14T13:43:53;11.80;88.30
78345;DHT22;67620;51.134;6.548;2024-02-14T13:46:19;11.80;89.00
78345;DHT22;67620;51.134;6.548;2024-02-14T13:48:45;11.80;89.10
78345;DHT22;67620;51.134;6.548;2024-02-14T13:51:10;11.80;89.90
78345;DHT22;67620;51.134;6.548;2024-02-14T13:53:36;11.70;89.80
78345;DHT22;67620;51.134;6.548;2024-02-14T13:56:01;11.70;90.50
78345;DHT22;67620;51.134;6.548;2024-02-14T13:58:27;11.70;90.70
78345;DHT22;67620;51.134;6.548;2024-02-14T14:00:53;11.60;90.80
78345;DHT22;67620;51.134;6.548;2024-02-14T14:03:18;11.60;91.10
78345;DHT22;67620;51.134;6.548;2024-02-14T14:05:44;11.50;91.50
78345;DHT22;67620;51.134;6.548;2024-02-14T14:08:09;11.40;92.40
78345;DHT22;67620;51.134;6.548;2024-02-14T14:10:35;11.40;92.80
78345;DHT22;67620;51.134;6.548;2024-02-14T14:13:00;11.40;92.70
78345;DHT22;67620;51.134;6.548;2024-02-14T14:15:26;11.30;93.10
78345;DHT22;67620;51.134;6.548;2024-02-14T14:17:54;11.30;93.40
78345;DHT22;67620;51.134;6.548;2024-02-14T14:20:19;11.30;93.50
78345;DHT22;67620;51.134;6.548;2024-02-14T14:22:45;11.30;93.80
78345;DHT22;67620;51.134;6.548;2024-02-14T14:25:10;11.20;93.80
78345;DHT22;67620;51.134;6.548;2024-02-14T14:27:36;11.20;94.10
78345;DHT22;67620;51.134;6.548;2024-02-14T14:30:02;11.20;94.40
78345;DHT22;67620;51.134;6.548;2024-02-14T14:32:29;11.20;94.30
78345;DHT22;67620;51.134;6.548;2024-02-14T14:34:54;11.20;94.30
78345;DHT22;67620;51.134;6.548;2024-02-14T14:37:20;11.10;94.60
78345;DHT22;67620;51.134;6.548;2024-02-14T14:39:45;11.10;94.80
78345;DHT22;67620;51.134;6.548;2024-02-14T14:42:11;11.20;94.60
78345;DHT22;67620;51.134;6.548;2024-02-14T14:44:36;11.10;94.50
78345;DHT22;67620;51.134;6.548;2024-02-14T14:47:02;11.20;94.80
78345;DHT22;67620;51.134;6.548;2024-02-14T14:49:27;11.20;94.60
78345;DHT22;67620;51.134;6.548;2024-02-14T14:51:53;11.20;94.50
78345;DHT22;67620;51.134;6.548;2024-02-14T14:54:19;11.20;94.50
78345;DHT22;67620;51.134;6.548;2024-02-14T14:56:44;11.20;94.30
78345;DHT22;67620;51.134;6.548;2024-02-14T14:59:11;11.20;94.50
78345;DHT22;67620;51.134;6.548;2024-02-14T15:01:37;11.20;94.30
78345;DHT22;67620;51.134;6.548;2024-02-14T15:04:03;11.20;94.20
78345;DHT22;67620;51.134;6.548;2024-02-14T15:06:29;11.20;94.30
78345;DHT22;67620;51.134;6.548;2024-02-14T15:08:55;11.30;93.80
78345;DHT22;67620;51.134;6.548;2024-02-14T15:11:21;11.20;93.60
78345;DHT22;67620;51.134;6.548;2024-02-14T15:13:47;11.30;93.70
78345;DHT22;67620;51.134;6.548;2024-02-14T15:16:13;11.30;94.10
78345;DHT22;67620;51.134;6.548;2024-02-14T15:18:39;11.20;93.90
78345;DHT22;67620;51.134;6.548;2024-02-14T15:21:07;11.30;93.60
78345;DHT22;67620;51.134;6.548;2024-02-14T15:23:32;11.30;93.20
78345;DHT22;67620;51.134;6.548;2024-02-14T15:25:58;11.30;93.10
78345;DHT22;67620;51.134;6.548;2024-02-14T15:28:34;11.40;92.80
78345;DHT22;67620;51.134;6.548;2024-02-14T15:31:06;11.40;92.70
78345;DHT22;67620;51.134;6.548;2024-02-14T15:33:50;11.40;92.60
78345;DHT22;67620;51.134;6.548;2024-02-14T15:36:16;11.40;92.30